Time;durP1;ratioP1;P1;durP2;ratioP2;P2;SDS_P1;SDS_P2;PMS_P1;PMS_P2;Temp;Humidity;BMP_temperature;BMP_pressure;BME280_temperature;BME280_humidity;BME280_pressure;Samples;Min_cycle;Max_cycle;Signal;HPM_P1;HPM_P2
2023/10/02 00:01:51;;;;;;;;;12.25;11.25;;;;;23.10;50.82;101559.72;4900967;28;45777;-49
2023/10/02 00:04:17;;;;;;;;;17.50;14.75;;;;;23.10;50.26;101565.00;4921183;28;45717;-48
2023/10/02 00:06:43;;;;;;;;;11.75;10.50;;;;;23.09;50.31;101558.00;4921146;28;45351;-49
2023/10/02 00:09:09;;;;;;;;;16.00;12.00;;;;;23.10;50.55;101557.91;4921210;28;45518;-52
2023/10/02 00:11:39;;;;;;;;;12.50;11.25;;;;;23.09;50.44;101564.16;4920780;28;45461;-48
2023/10/02 00:14:25;;;;;;;;;14.00;10.75;;;;;23.10;50.51;101567.63;4920883;28;46013;-43
2023/10/02 00:16:59;;;;;;;;;13.00;10.50;;;;;23.10;50.23;101572.94;4921066;28;45315;-43
2023/10/02 00:19:40;;;;;;;;;15.00;12.50;;;;;23.09;50.23;101561.50;4919796;28;45417;-46
2023/10/02 00:22:34;;;;;;;;;16.00;11.50;;;;;23.11;50.60;101569.34;4920810;28;45646;-49
2023/10/02 00:24:57;;;;;;;;;17.00;11.25;;;;;23.10;50.45;101572.94;4920487;28;45434;-53
2023/10/02 00:27:23;;;;;;;;;14.25;11.75;;;;;23.10;50.24;101573.75;4921005;28;45228;-50
2023/10/02 00:29:51;;;;;;;;;16.25;11.25;;;;;23.10;49.97;101575.56;4921195;28;45579;-49
2023/10/02 00:32:19;;;;;;;;;13.25;11.50;;;;;23.10;50.09;101576.41;4920583;28;45928;-50
2023/10/02 00:34:48;;;;;;;;;18.00;14.25;;;;;23.10;50.38;101581.69;4920605;28;45338;-50
2023/10/02 00:37:13;;;;;;;;;12.00;10.25;;;;;23.10;50.12;101576.41;4920614;28;45283;-48
2023/10/02 00:39:47;;;;;;;;;14.75;12.00;;;;;23.12;50.33;101576.34;4920521;28;45577;-49
2023/10/02 00:42:16;;;;;;;;;12.00;11.00;;;;;23.10;50.21;101576.41;4920452;28;46069;-48
2023/10/02 00:44:54;;;;;;;;;11.25;8.25;;;;;23.11;50.25;101567.53;4920393;28;45437;-48
2023/10/02 00:50:11;;;;;;;;;12.00;11.00;;;;;23.11;50.18;101572.00;4920664;28;45389;-51
2023/10/02 00:53:04;;;;;;;;;14.00;9.50;;;;;23.11;50.21;101567.53;4920246;28;45330;-50
2023/10/02 00:55:32;;;;;;;;;13.75;11.25;;;;;23.11;49.90;101566.72;4919374;28;45442;-53
2023/10/02 00:57:58;;;;;;;;;14.00;9.00;;;;;23.11;50.48;101570.19;4920292;28;45279;-50
2023/10/02 01:00:35;;;;;;;;;16.75;13.25;;;;;23.11;49.90;101570.19;4920465;28;45601;-43
2023/10/02 01:03:04;;;;;;;;;19.50;12.25;;;;;23.10;49.92;101560.53;4920040;28;46517;-49
2023/10/02 01:05:41;;;;;;;;;12.00;11.00;;;;;23.10;50.16;101565.84;4920112;28;45319;-51
2023/10/02 01:08:25;;;;;;;;;16.50;11.50;;;;;23.11;49.83;101561.41;4920226;28;45316;-51
2023/10/02 01:10:56;;;;;;;;;18.00;12.75;;;;;23.10;49.81;101560.53;4920509;28;45307;-47
2023/10/02 01:13:32;;;;;;;;;14.25;11.00;;;;;23.10;50.24;101562.34;4920337;28;47115;-49
2023/10/02 01:16:00;;;;;;;;;15.00;10.00;;;;;23.09;49.92;101558.88;4920093;28;45774;-49
2023/10/02 01:18:29;;;;;;;;;15.50;12.75;;;;;23.11;49.92;101562.25;4920155;28;45389;-42
2023/10/02 01:21:00;;;;;;;;;12.00;11.50;;;;;23.11;50.12;101566.72;4920417;28;45425;-47
2023/10/02 01:23:29;;;;;;;;;10.25;8.00;;;;;23.10;49.88;101560.53;4919796;28;46356;-45
2023/10/02 01:26:02;;;;;;;;;16.75;13.25;;;;;23.09;50.13;101558.88;4919903;28;45308;-46
2023/10/02 01:28:49;;;;;;;;;15.50;11.50;;;;;23.10;49.72;101559.72;4919986;28;45323;-51
2023/10/02 01:31:41;;;;;;;;;13.00;10.50;;;;;23.09;49.88;101556.22;4919988;28;45288;-51
2023/10/02 01:34:06;;;;;;;;;13.75;9.50;;;;;23.09;50.28;101553.59;4919527;28;46362;-52
2023/10/02 01:36:33;;;;;;;;;19.50;12.00;;;;;23.09;50.03;101550.06;4918863;28;45450;-51
2023/10/02 01:39:14;;;;;;;;;17.50;12.25;;;;;23.10;49.99;101549.13;4919666;28;45475;-53
2023/10/02 01:41:41;;;;;;;;;15.50;11.75;;;;;23.10;49.97;101547.31;4919795;28;45513;-52
2023/10/02 01:44:11;;;;;;;;;14.00;10.50;;;;;23.09;49.90;101547.41;4919559;28;46723;-48
2023/10/02 01:46:49;;;;;;;;;13.25;11.50;;;;;23.08;50.17;101549.22;4919738;28;45806;-46
2023/10/02 01:49:24;;;;;;;;;16.75;10.75;;;;;23.07;50.14;101542.22;4919481;28;45485;-46
2023/10/02 01:51:50;;;;;;;;;11.75;10.50;;;;;23.08;50.10;101546.59;4919635;28;45499;-44
2023/10/02 01:54:15;;;;;;;;;12.25;12.25;;;;;23.08;50.26;101551.00;4919382;28;45363;-48
2023/10/02 01:56:45;;;;;;;;;15.00;11.00;;;;;23.07;50.03;101550.16;4919409;28;45460;-52
2023/10/02 01:59:14;;;;;;;;;16.75;11.00;;;;;23.08;50.39;101543.06;4919491;28;45248;-53
2023/10/02 02:01:52;;;;;;;;;14.75;12.75;;;;;23.07;50.53;101542.22;4919585;28;45606;-49
2023/10/02 02:04:27;;;;;;;;;17.00;12.00;;;;;23.06;50.33;101535.22;4919438;28;46466;-48
2023/10/02 02:06:54;;;;;;;;;12.50;11.75;;;;;23.04;50.23;101536.25;4917831;28;45813;-49
2023/10/02 02:09:24;;;;;;;;;11.75;11.00;;;;;23.03;49.99;101535.41;4919305;28;45240;-51
2023/10/02 02:12:14;;;;;;;;;14.25;11.00;;;;;23.04;50.38;101529.16;4919427;28;45629;-47
2023/10/02 02:14:50;;;;;;;;;18.75;13.00;;;;;23.04;50.06;101531.81;4919061;28;47242;-51
2023/10/02 02:17:26;;;;;;;;;14.00;12.50;;;;;23.04;50.27;101530.97;4919227;28;45282;-46
2023/10/02 02:19:59;;;;;;;;;19.75;12.75;;;;;23.03;50.39;101527.47;4919219;28;45284;-47
2023/10/02 02:22:26;;;;;;;;;15.50;14.50;;;;;23.04;50.15;101528.34;4919592;28;45172;-53
2023/10/02 02:24:55;;;;;;;;;16.50;10.50;;;;;23.03;50.56;101527.47;4919025;28;46137;-50
2023/10/02 02:27:21;;;;;;;;;14.75;12.75;;;;;23.03;50.38;101524.81;4918918;28;45837;-51
2023/10/02 02:29:54;;;;;;;;;14.00;11.75;;;;;23.03;50.08;101522.19;4933779;28;45416;-50
2023/10/02 02:32:20;;;;;;;;;10.25;10.00;;;;;23.03;50.66;101522.19;4919095;28;45419;-46
2023/10/02 02:34:47;;;;;;;;;14.25;11.50;;;;;23.04;49.85;101521.25;4918728;28;45348;-47
2023/10/02 02:37:13;;;;;;;;;16.50;11.00;;;;;23.04;49.86;101523.03;4918899;28;45339;-52
2023/10/02 02:39:39;;;;;;;;;16.75;12.75;;;;;23.03;50.13;101519.53;4917663;28;45526;-50
2023/10/02 02:44:45;;;;;;;;;16.00;13.25;;;;;23.03;49.88;101523.97;4918573;28;45379;-47
2023/10/02 02:47:12;;;;;;;;;16.75;12.50;;;;;23.04;50.54;101517.75;4918063;28;46016;-53
2023/10/02 02:49:48;;;;;;;;;18.75;10.00;;;;;23.03;50.00;101514.25;4918322;28;45349;-50
2023/10/02 02:52:32;;;;;;;;;12.75;8.25;;;;;23.03;50.38;101519.53;4919109;28;45446;-53
2023/10/02 02:55:12;;;;;;;;;16.00;12.25;;;;;23.04;49.93;101517.75;4918585;28;46402;-51
2023/10/02 02:57:39;;;;;;;;;11.75;10.00;;;;;23.02;50.07;101520.47;4918563;28;45248;-49
2023/10/02 03:02:53;;;;;;;;;20.00;11.00;;;;;23.03;50.21;101516.03;4918831;28;45705;-47
2023/10/02 03:05:21;;;;;;;;;14.50;11.75;;;;;23.03;50.03;101516.88;4918443;28;46228;-49
2023/10/02 03:07:54;;;;;;;;;15.25;12.00;;;;;23.02;49.90;101509.88;4918443;28;45168;-50
2023/10/02 03:10:21;;;;;;;;;15.00;13.75;;;;;23.03;49.96;101503.66;4918410;28;45311;-49
2023/10/02 03:12:47;;;;;;;;;17.25;13.00;;;;;23.00;50.28;101498.53;4918841;28;45232;-51
2023/10/02 03:15:14;;;;;;;;;21.50;13.00;;;;;23.03;50.38;101500.19;4918305;28;46361;-49
2023/10/02 03:17:41;;;;;;;;;18.50;12.00;;;;;23.01;49.97;101503.75;4918327;28;45823;-48
2023/10/02 03:20:22;;;;;;;;;13.25;13.25;;;;;23.02;50.01;101507.25;4917836;28;45367;-52
2023/10/02 03:22:52;;;;;;;;;16.50;14.00;;;;;23.01;50.23;101495.84;4918454;28;45545;-50
2023/10/02 03:28:03;;;;;;;;;16.00;14.00;;;;;23.01;50.43;101505.53;4918636;28;45426;-49
2023/10/02 03:30:35;;;;;;;;;17.25;13.00;;;;;23.00;50.05;101496.78;4918652;28;45320;-52
2023/10/02 03:33:02;;;;;;;;;12.25;11.75;;;;;23.01;50.37;101497.59;4918818;28;45362;-50
2023/10/02 03:35:28;;;;;;;;;12.25;11.25;;;;;23.01;50.22;101494.97;4918300;28;45443;-47
2023/10/02 03:37:53;;;;;;;;;18.50;11.75;;;;;23.00;49.91;101495.91;4918174;28;45458;-49
2023/10/02 03:40:20;;;;;;;;;12.75;11.00;;;;;23.01;50.11;101495.84;4918269;28;45654;-47
2023/10/02 03:42:47;;;;;;;;;10.50;8.75;;;;;22.99;50.67;101484.47;4918297;28;45540;-50
2023/10/02 03:45:13;;;;;;;;;14.00;10.00;;;;;23.01;50.11;101492.31;4916653;28;47395;-49
2023/10/02 03:47:38;;;;;;;;;16.25;13.00;;;;;23.00;50.02;101485.31;4916765;28;45328;-48
2023/10/02 03:50:10;;;;;;;;;19.75;16.00;;;;;22.99;50.71;101483.63;4918162;28;45290;-51
2023/10/02 03:52:35;;;;;;;;;20.25;15.00;;;;;23.00;50.40;101482.69;4918234;28;45481;-50
2023/10/02 03:55:17;;;;;;;;;15.50;13.00;;;;;23.00;50.33;101490.59;4918010;28;45217;-50
2023/10/02 03:57:55;;;;;;;;;15.00;12.50;;;;;22.99;50.58;101488.91;4917819;28;45951;-49
2023/10/02 04:00:26;;;;;;;;;18.00;13.00;;;;;22.99;50.69;101483.63;4920138;28;45256;-48
2023/10/02 04:02:53;;;;;;;;;17.75;13.50;;;;;22.98;50.45;101480.13;4904846;28;45580;-46
2023/10/02 04:05:32;;;;;;;;;17.25;13.25;;;;;22.98;50.65;101476.66;4920912;28;46748;-48
2023/10/02 04:08:21;;;;;;;;;24.00;12.00;;;;;22.98;50.46;101474.00;4920912;28;45177;-49
2023/10/02 04:10:51;;;;;;;;;14.25;12.00;;;;;22.97;50.51;101477.59;4921141;28;45457;-48
2023/10/02 04:13:23;;;;;;;;;15.75;11.75;;;;;22.96;50.76;101471.44;4921348;28;45517;-51
2023/10/02 04:15:48;;;;;;;;;15.75;13.00;;;;;22.95;50.46;101477.66;4920746;28;46403;-50
2023/10/02 04:18:45;;;;;;;;;22.00;16.50;;;;;22.97;50.66;101477.59;4920971;28;45232;-54
2023/10/02 04:21:05;;;;;;;;;17.25;12.00;;;;;22.97;50.62;101480.22;4920735;28;45303;-51
2023/10/02 04:23:38;;;;;;;;;16.75;12.50;;;;;22.95;50.25;101474.16;4921218;28;45455;-44
2023/10/02 04:26:05;;;;;;;;;13.50;11.00;;;;;22.96;50.60;101474.06;4920913;28;46254;-46
2023/10/02 04:28:47;;;;;;;;;17.25;13.25;;;;;22.96;50.50;101475.88;4920611;28;45402;-46
2023/10/02 04:31:20;;;;;;;;;11.50;10.00;;;;;22.95;50.42;101479.47;4920690;28;45344;-49
2023/10/02 04:33:52;;;;;;;;;16.25;11.75;;;;;22.95;50.78;101471.53;4920920;28;45234;-47
2023/10/02 04:36:23;;;;;;;;;12.00;11.25;;;;;22.95;50.66;101471.53;4920597;28;47170;-47
2023/10/02 04:38:49;;;;;;;;;16.50;13.00;;;;;22.94;50.35;101469.81;4920411;28;45822;-51
2023/10/02 04:41:26;;;;;;;;;19.00;13.00;;;;;22.94;50.39;101470.66;4920374;28;45356;-48
2023/10/02 04:43:57;;;;;;;;;12.75;10.00;;;;;22.94;50.54;101469.81;4920603;28;45466;-48
2023/10/02 04:46:26;;;;;;;;;16.25;12.50;;;;;22.93;50.75;101468.94;4920380;28;45625;-52
2023/10/02 04:48:59;;;;;;;;;18.00;13.25;;;;;22.92;50.91;101476.97;4920444;28;45868;-53
2023/10/02 04:51:28;;;;;;;;;13.25;12.00;;;;;22.93;50.60;101473.41;4920539;28;45458;-50
2023/10/02 04:53:57;;;;;;;;;16.25;14.00;;;;;22.92;50.78;101471.69;4919595;28;45355;-48
2023/10/02 04:56:24;;;;;;;;;15.75;11.25;;;;;22.92;50.79;101482.25;4920260;28;46999;-48
2023/10/02 04:58:51;;;;;;;;;13.75;10.75;;;;;22.91;50.55;101475.25;4919157;28;45925;-47
2023/10/02 05:01:41;;;;;;;;;16.50;11.00;;;;;22.92;50.21;101472.56;4920405;28;45481;-50
2023/10/02 05:04:08;;;;;;;;;14.50;12.00;;;;;22.91;50.34;101468.22;4919464;28;45265;-50
2023/10/02 05:06:52;;;;;;;;;17.00;15.25;;;;;22.91;50.40;101472.63;4919997;28;46655;-50
2023/10/02 05:09:21;;;;;;;;;16.00;13.00;;;;;22.90;50.31;101463.84;4920154;28;45767;-50
2023/10/02 05:11:52;;;;;;;;;16.50;13.75;;;;;22.89;50.76;101467.44;4919236;28;45365;-54
2023/10/02 05:14:28;;;;;;;;;20.00;12.75;;;;;22.88;50.44;101471.00;4920332;28;45610;-47
2023/10/02 05:17:17;;;;;;;;;17.00;14.75;;;;;22.88;50.25;101470.13;4919868;28;47521;-51
2023/10/02 05:19:56;;;;;;;;;14.00;11.50;;;;;22.87;50.60;101461.38;4919892;28;45341;-55
2023/10/02 05:22:27;;;;;;;;;14.25;13.25;;;;;22.87;50.59;101457.91;4920145;28;45316;-50
2023/10/02 05:24:58;;;;;;;;;13.75;11.00;;;;;22.85;50.45;101458.81;4919965;28;45395;-51
2023/10/02 05:27:29;;;;;;;;;13.00;7.00;;;;;22.85;50.42;101461.47;4919649;28;47108;-50
2023/10/02 05:29:59;;;;;;;;;17.50;10.25;;;;;22.84;50.83;101465.06;4918422;28;46086;-53
2023/10/02 05:32:29;;;;;;;;;12.75;12.00;;;;;22.84;50.29;101466.81;4918391;28;45410;-53
2023/10/02 05:35:05;;;;;;;;;18.50;13.75;;;;;22.84;50.29;101465.06;4919934;28;45291;-49
2023/10/02 05:37:32;;;;;;;;;13.50;10.00;;;;;22.82;50.52;101474.00;4919318;28;47490;-49
2023/10/02 05:42:50;;;;;;;;;14.50;11.25;;;;;22.82;50.13;101466.91;4919624;28;45291;-49
2023/10/02 05:45:17;;;;;;;;;15.00;12.50;;;;;22.81;50.40;101462.56;4919674;28;45267;-47
2023/10/02 05:47:48;;;;;;;;;14.00;13.00;;;;;22.81;50.00;101465.22;4919379;28;46467;-50
2023/10/02 05:50:15;;;;;;;;;13.75;11.75;;;;;22.80;50.17;101462.66;4919237;28;45431;-49
2023/10/02 05:52:48;;;;;;;;;15.00;10.25;;;;;22.81;50.17;101467.00;4918598;28;45372;-53
2023/10/02 05:55:17;;;;;;;;;13.75;8.50;;;;;22.78;50.23;101473.28;4919466;28;45491;-50
2023/10/02 05:57:42;;;;;;;;;15.00;11.25;;;;;22.78;50.25;101470.66;4919049;28;46344;-45
2023/10/02 06:00:16;;;;;;;;;13.50;11.75;;;;;22.77;50.06;101463.66;4919491;28;45264;-48
2023/10/02 06:02:56;;;;;;;;;16.50;12.00;;;;;22.77;50.20;101462.81;4919858;28;45351;-49
2023/10/02 06:05:22;;;;;;;;;18.00;12.25;;;;;22.77;50.31;101453.09;4919333;28;45346;-48
2023/10/02 06:07:51;;;;;;;;;18.50;12.00;;;;;22.75;49.96;101449.72;4918604;28;64687;-51
2023/10/02 06:10:26;;;;;;;;;19.50;15.50;;;;;22.77;50.36;101452.25;4919033;28;45331;-47
2023/10/02 06:13:03;;;;;;;;;14.00;11.50;;;;;22.77;50.25;101447.81;4919425;28;45319;-48
2023/10/02 06:15:48;;;;;;;;;17.25;10.50;;;;;22.76;50.29;101461.97;4919241;28;45242;-45
2023/10/02 06:18:27;;;;;;;;;20.50;11.00;;;;;22.76;50.49;101469.03;4917531;28;47563;-43
2023/10/02 06:21:02;;;;;;;;;20.00;13.00;;;;;22.75;50.19;101468.19;4917520;28;45331;-43
2023/10/02 06:23:30;;;;;;;;;20.75;14.00;;;;;22.75;50.44;101470.84;4918632;28;45351;-49
2023/10/02 06:25:58;;;;;;;;;16.00;11.75;;;;;22.74;49.78;101463.84;4919211;28;45362;-51
2023/10/02 06:28:27;;;;;;;;;8.25;8.25;;;;;22.74;50.18;101473.56;4918828;28;46220;-52
2023/10/02 06:30:52;;;;;;;;;18.50;13.00;;;;;22.73;50.01;101477.13;4918858;28;45327;-46
2023/10/02 06:33:21;;;;;;;;;13.50;11.00;;;;;22.73;50.08;101482.41;4918837;28;45383;-50
2023/10/02 06:35:56;;;;;;;;;19.75;12.25;;;;;22.72;50.06;101475.41;4919056;28;45324;-48
2023/10/02 06:38:25;;;;;;;;;16.00;13.25;;;;;22.72;50.33;101481.56;4918434;28;46156;-43
2023/10/02 06:40:56;;;;;;;;;18.25;11.25;;;;;22.73;50.41;101483.28;4918657;28;45442;-45
2023/10/02 06:43:30;;;;;;;;;17.50;13.00;;;;;22.74;50.21;101492.03;4918897;28;45385;-44
2023/10/02 06:46:06;;;;;;;;;21.75;15.25;;;;;22.72;50.09;101489.50;4918896;28;45219;-46
2023/10/02 06:48:37;;;;;;;;;12.75;9.75;;;;;22.72;50.06;101492.16;4917409;28;46928;-49
2023/10/02 06:51:07;;;;;;;;;16.25;11.50;;;;;22.73;49.76;101491.22;4918536;28;46085;-49
2023/10/02 06:53:33;;;;;;;;;16.25;12.50;;;;;22.73;49.93;101491.22;4918784;28;45307;-53
2023/10/02 06:56:07;;;;;;;;;14.00;12.75;;;;;22.73;50.08;101488.56;4918781;28;45282;-50
2023/10/02 06:58:46;;;;;;;;;15.00;12.75;;;;;22.74;50.37;101490.28;4918330;28;47019;-49
2023/10/02 07:01:13;;;;;;;;;19.25;13.50;;;;;22.73;50.17;101483.28;4917142;28;45837;-48
2023/10/02 07:03:39;;;;;;;;;15.75;12.00;;;;;22.73;49.83;101488.56;4918740;28;45307;-53
2023/10/02 07:06:07;;;;;;;;;12.25;11.25;;;;;22.73;50.01;101490.34;4918772;28;45629;-52
2023/10/02 07:08:35;;;;;;;;;14.75;12.75;;;;;22.74;50.07;101489.41;4918012;28;45423;-53
2023/10/02 07:11:10;;;;;;;;;15.25;11.75;;;;;22.75;50.17;101496.41;4917933;28;45379;-52
2023/10/02 07:13:50;;;;;;;;;19.00;13.50;;;;;22.75;50.26;101492.00;4918459;28;45422;-47
2023/10/02 07:16:17;;;;;;;;;16.50;13.00;;;;;22.74;50.06;101490.28;4918992;28;45260;-47
2023/10/02 07:18:49;;;;;;;;;21.25;14.00;;;;;22.75;50.01;101491.13;4918576;28;46573;-49
2023/10/02 07:21:19;;;;;;;;;12.00;10.50;;;;;22.74;49.77;101490.28;4917261;28;45804;-45
2023/10/02 07:23:45;;;;;;;;;15.50;11.00;;;;;22.76;49.73;101490.19;4918528;28;45470;-45
2023/10/02 07:26:15;;;;;;;;;15.25;14.50;;;;;22.77;49.96;101489.25;4918606;28;45409;-50
2023/10/02 07:28:50;;;;;;;;;18.75;14.00;;;;;22.76;49.58;101491.06;4918210;28;46193;-45
2023/10/02 07:31:23;;;;;;;;;11.75;9.25;;;;;22.77;49.96;101483.97;4918633;28;45231;-48
2023/10/02 07:33:48;;;;;;;;;15.00;13.25;;;;;22.78;49.65;101485.66;4918523;28;45540;-46
2023/10/02 07:36:15;;;;;;;;;16.50;12.75;;;;;22.77;49.47;101490.09;4922013;28;45669;-47
2023/10/02 07:38:46;;;;;;;;;10.75;10.75;;;;;22.78;49.65;101490.97;4921266;28;45265;-49
2023/10/02 07:41:23;;;;;;;;;18.00;11.50;;;;;22.78;49.43;101486.50;4921256;28;46046;-49
2023/10/02 07:44:07;;;;;;;;;12.00;10.50;;;;;22.78;49.84;101483.88;4921688;28;45440;-46
2023/10/02 07:46:32;;;;;;;;;17.50;13.50;;;;;22.79;49.88;101479.44;4921534;28;45474;-48
2023/10/02 07:48:59;;;;;;;;;19.00;13.25;;;;;22.77;49.73;101479.50;4936091;28;47534;-47
2023/10/02 07:51:35;;;;;;;;;19.75;13.50;;;;;22.78;49.97;101483.88;4921347;28;45423;-42
2023/10/02 07:54:06;;;;;;;;;19.00;12.50;;;;;22.78;49.22;101481.22;4921411;28;45173;-49
2023/10/02 07:56:33;;;;;;;;;16.50;14.50;;;;;22.80;49.59;101486.44;4921524;28;45445;-46
2023/10/02 07:59:01;;;;;;;;;22.25;13.50;;;;;22.79;49.66;101482.94;4921135;28;47142;-42
2023/10/02 08:01:33;;;;;;;;;16.00;13.00;;;;;22.79;50.09;101490.88;4921152;28;45220;-43
2023/10/02 08:04:01;;;;;;;;;18.00;15.25;;;;;22.80;49.50;101486.44;4921260;28;45401;-49
2023/10/02 08:06:33;;;;;;;;;17.25;13.75;;;;;22.80;49.79;101489.09;4920170;28;45269;-49
2023/10/02 08:11:49;;;;;;;;;23.75;14.50;;;;;22.80;49.69;101489.09;4920860;28;45449;-52
2023/10/02 08:14:35;;;;;;;;;25.75;17.00;;;;;22.82;49.48;101487.22;4921387;28;45773;-48
2023/10/02 08:17:08;;;;;;;;;15.75;12.25;;;;;22.81;49.23;101491.63;4921196;28;45335;-48
2023/10/02 08:19:36;;;;;;;;;13.25;12.00;;;;;22.82;49.50;101490.69;4920709;28;45383;-47
2023/10/02 08:22:05;;;;;;;;;1.50;0.00;;;;;22.83;48.95;101484.47;4920745;28;45857;-44
2023/10/02 08:24:36;;;;;;;;;7.50;4.25;;;;;22.84;49.08;101493.25;4920747;28;45351;-47
2023/10/02 08:27:04;;;;;;;;;15.25;11.25;;;;;22.84;49.42;101486.19;4920672;28;45495;-51
2023/10/02 08:29:29;;;;;;;;;19.50;12.50;;;;;22.85;49.11;101493.19;4920407;28;45711;-47
2023/10/02 08:31:55;;;;;;;;;15.50;12.00;;;;;22.85;49.33;101492.31;4920412;28;45430;-49
2023/10/02 08:34:24;;;;;;;;;21.00;15.25;;;;;22.85;49.07;101493.19;4920905;28;45333;-46
